Ayer, Massachusetts
Current Conditions -  °F | °C
As of 11:52 PM on Saturday 22 Nov 2014 (Local Time) from KFIT Reporting Station
Scattered Clouds Scattered Clouds  
Wind Chill: 36°   Ceiling: Unl
Heat Index: 41°   Visibility: 10mi
Dew Point: 19°   Wind: 8mph
Humidity: 41%   Direction: 250°WSW
Pressure: 30.07"   Gusts: 21mph
Location:  42.56°N, 71.58°W
Report Text: KFIT 230452Z AUTO 25007G18KT 220V280 10SM SCT033 05/M07 A3007 RMK AO2 SLP185 T00501072 400611072
Loading
Personal Weather Stations






























Interactive Weather Map New forecast layout! Learn more

10-Day Weather Forecast

Advertisements
Track Severe Weather on mobile